EHGG/GRQ METAR and TAF weather

Enter ICAO airport designator
Station Type Date Time Source
EHGG METAR 2022/12/10 02:25 UTC NOAA

EHGG 100225Z AUTO 21004KT 3000 BR NCD M04/M05 Q1007


Station Type Date Time Source
EHGG Decoded METAR 2022/12/10 02:25 UTC NOAA

Groningen Airport Eelde, Netherlands (EHGG) 53-08N 006-35E 4M
Dec 09, 2022 - 09:25 PM EST / 2022.12.10 0225 UTC
Wind: from the SSW (210 degrees) at 5 MPH (4 KT):0
Visibility: 1 mile(s):0
Weather: mist
Temperature: 24 F (-4 C)
Windchill: 17 F (-8 C):1
Dew Point: 23 F (-5 C)
Relative Humidity: 92%
Pressure (altimeter): 29.74 in. Hg (1007 hPa)
ob: EHGG 100225Z AUTO 21004KT 3000 BR NCD M04/M05 Q1007
cycle: 2

Station Type Date Time Source
EHGG TAF 2022/12/09 18:27 UTC NOAA

TAF EHGG 091721Z 0918/1024 20005KT 0200 FZFG VV000
TEMPO 0918/1009 1200 BCFG BKN002
BECMG 1009/1012 1500 BR BKN003 PROB30 1012/1016 0800 FZFG BKN001
BECMG 1015/1018 1200 BKN002 PROB40 1016/1024 0600 FZFG VV000

Example: see airport list